createdAt,value
2019-02-28T00:00:21.990Z,57.04
2019-02-28T00:01:21.986Z,51.79
2019-02-28T00:02:22.680Z,54.26
2019-02-28T00:03:21.977Z,52.93
2019-02-28T00:04:21.973Z,51.98
2019-02-28T00:05:21.967Z,49.32
2019-02-28T00:06:21.972Z,51.12
2019-02-28T00:07:21.957Z,52.08
2019-02-28T00:08:21.952Z,47.77
2019-02-28T00:09:21.948Z,49.29
2019-02-28T00:10:21.942Z,44.83
2019-02-28T00:11:21.937Z,46.45
2019-02-28T00:12:21.933Z,47.49
2019-02-28T00:13:22.545Z,46.64
2019-02-28T00:14:21.923Z,41.41
2019-02-28T00:15:21.917Z,42.74
2019-02-28T00:16:21.913Z,42.08
2019-02-28T00:17:21.907Z,40.17
2019-02-28T00:18:21.903Z,40.27
2019-02-28T00:19:23.938Z,35.90
2019-02-28T00:20:21.892Z,39.32
2019-02-28T00:21:21.890Z,41.41
2019-02-28T00:22:21.883Z,34.11
2019-02-28T00:23:22.011Z,36.47
2019-02-28T00:24:21.872Z,35.16
2019-02-28T00:25:21.867Z,32.50
2019-02-28T00:26:21.861Z,33.17
2019-02-28T00:27:22.176Z,33.73
2019-02-28T00:28:23.132Z,35.16
2019-02-28T00:29:21.847Z,36.98
2019-02-28T00:30:21.844Z,38.70
2019-02-28T00:31:21.837Z,38.70
2019-02-28T00:32:24.776Z,41.74
2019-02-28T00:33:21.829Z,43.35
2019-02-28T00:34:21.820Z,41.07
2019-02-28T00:35:21.814Z,41.36
2019-02-28T00:36:21.810Z,41.93
2019-02-28T00:37:24.704Z,41.93
2019-02-28T00:38:21.800Z,43.26
2019-02-28T00:39:21.794Z,44.40
2019-02-28T00:40:21.789Z,44.49
2019-02-28T00:41:21.785Z,44.21
2019-02-28T00:42:21.778Z,45.07
2019-02-28T00:43:22.246Z,44.12
2019-02-28T00:44:21.769Z,43.83
2019-02-28T00:45:21.766Z,43.64
2019-02-28T00:46:21.758Z,40.03
2019-02-28T00:47:21.750Z,39.93
2019-02-28T00:48:22.319Z,41.46
2019-02-28T00:49:24.548Z,41.46
2019-02-28T00:50:21.737Z,38.89
2019-02-28T00:51:21.731Z,37.37
2019-02-28T00:52:21.725Z,38.22
2019-02-28T00:53:21.720Z,43.83
2019-02-28T00:54:21.715Z,45.04
2019-02-28T00:55:21.711Z,41.53
2019-02-28T00:56:21.704Z,48.08
2019-02-28T00:57:23.627Z,50.84
2019-02-28T00:58:21.694Z,49.32
2019-02-28T00:59:21.689Z,48.25
2019-02-28T01:00:21.683Z,48.06
2019-02-28T01:01:21.679Z,46.54
2019-02-28T01:02:21.673Z,44.81
2019-02-28T01:03:26.504Z,42.91
2019-02-28T01:04:21.661Z,44.24
2019-02-28T01:05:21.659Z,43.10
2019-02-28T01:06:21.650Z,40.25
2019-02-28T01:07:21.646Z,39.49
2019-02-28T01:08:22.123Z,37.30
2019-02-28T01:09:21.633Z,36.36
2019-02-28T01:10:21.629Z,30.57
2019-02-28T01:11:21.624Z,34.06
2019-02-28T01:12:21.617Z,33.30
2019-02-28T01:13:21.612Z,33.97
2019-02-28T01:14:21.611Z,34.63
2019-02-28T01:15:21.601Z,35.30
2019-02-28T01:16:21.596Z,35.30
2019-02-28T01:17:24.065Z,32.17
2019-02-28T01:18:21.584Z,32.35
2019-02-28T01:19:21.578Z,26.66
2019-02-28T01:20:21.573Z,26.66
2019-02-28T01:21:23.940Z,26.76
2019-02-28T01:22:21.563Z,27.33
2019-02-28T01:23:21.557Z,27.23
2019-02-28T01:24:21.551Z,24.95
2019-02-28T01:25:21.545Z,21.15
2019-02-28T01:26:21.540Z,19.54
2019-02-28T01:27:21.842Z,16.60
2019-02-28T01:28:23.472Z,18.79
2019-02-28T01:29:21.524Z,19.92
2019-02-28T01:30:21.517Z,18.60
2019-02-28T01:31:21.511Z,19.92
2019-02-28T01:32:21.508Z,20.68
2019-02-28T01:33:24.556Z,18.69
2019-02-28T01:34:21.496Z,15.84
2019-02-28T01:35:21.488Z,18.50
2019-02-28T01:36:21.482Z,19.35
2019-02-28T01:37:21.967Z,5.22
2019-02-28T01:38:23.880Z,5.22
2019-02-28T01:39:21.467Z,10.44
2019-02-28T01:40:21.458Z,8.35
2019-02-28T01:41:21.453Z,1.04
2019-02-28T01:42:21.447Z,0.00
2019-02-28T01:43:21.441Z,0.00
2019-02-28T01:44:21.439Z,0.00
2019-02-28T01:45:21.429Z,0.00
2019-02-28T01:46:21.422Z,0.00
2019-02-28T01:47:21.419Z,2.47
2019-02-28T01:48:22.671Z,6.64
2019-02-28T01:49:21.406Z,11.38
2019-02-28T01:50:21.401Z,9.58
2019-02-28T01:51:21.394Z,1.42
2019-02-28T01:52:21.402Z,0.00
2019-02-28T01:53:21.394Z,0.00
2019-02-28T01:54:21.384Z,0.00
2019-02-28T01:55:21.370Z,7.97
2019-02-28T01:56:21.365Z,7.50
2019-02-28T01:57:21.358Z,6.26
2019-02-28T01:58:21.354Z,3.89
2019-02-28T01:59:22.222Z,3.98
2019-02-28T02:00:23.816Z,6.16
2019-02-28T02:01:21.335Z,2.75
2019-02-28T02:02:21.330Z,0.19
2019-02-28T02:03:21.325Z,7.02
2019-02-28T02:04:21.317Z,1.61
2019-02-28T02:05:21.311Z,0.00
2019-02-28T02:06:22.596Z,0.00
2019-02-28T02:07:21.298Z,0.00
2019-02-28T02:08:21.294Z,0.00
2019-02-28T02:09:21.288Z,0.00
2019-02-28T02:10:21.711Z,0.00
2019-02-28T02:11:21.276Z,0.00
2019-02-28T02:12:21.268Z,0.00
2019-02-28T02:13:21.265Z,0.00
2019-02-28T02:14:21.258Z,0.00
2019-02-28T02:15:21.251Z,0.00
2019-02-28T02:16:26.853Z,0.00
2019-02-28T02:17:21.239Z,0.00
2019-02-28T02:18:21.233Z,1.99
2019-02-28T02:19:21.227Z,5.32
2019-02-28T02:20:23.414Z,3.89
2019-02-28T02:21:21.215Z,4.94
2019-02-28T02:22:21.210Z,5.60
2019-02-28T02:23:21.202Z,7.41
2019-02-28T02:24:21.198Z,8.64
2019-02-28T02:25:21.192Z,10.36
2019-02-28T02:26:21.185Z,9.03
2019-02-28T02:27:21.179Z,11.41
2019-02-28T02:28:21.173Z,10.83
2019-02-28T02:29:21.168Z,9.60
2019-02-28T02:30:21.161Z,11.02
2019-02-28T02:31:27.612Z,11.88
2019-02-28T02:32:21.161Z,10.74
2019-02-28T02:33:21.185Z,7.89
2019-02-28T02:34:24.264Z,7.89
2019-02-28T02:35:21.134Z,7.13
2019-02-28T02:36:21.126Z,7.89
2019-02-28T02:37:21.155Z,7.79
2019-02-28T02:38:21.121Z,7.98
2019-02-28T02:39:21.110Z,7.89
2019-02-28T02:40:22.996Z,7.42
2019-02-28T02:41:21.097Z,7.79
2019-02-28T02:42:21.091Z,8.75
2019-02-28T02:43:21.893Z,7.31
2019-02-28T02:44:21.078Z,7.98
2019-02-28T02:45:21.073Z,6.37
2019-02-28T02:46:21.426Z,7.03
2019-02-28T02:47:21.060Z,7.22
2019-02-28T02:48:21.056Z,6.56
2019-02-28T02:49:21.049Z,6.56
2019-02-28T02:50:21.045Z,6.56
2019-02-28T02:51:21.047Z,6.18
2019-02-28T02:52:25.894Z,5.60
2019-02-28T02:53:21.026Z,5.79
2019-02-28T02:54:21.022Z,5.98
2019-02-28T02:55:27.558Z,2.66
2019-02-28T02:56:21.009Z,2.09
2019-02-28T02:57:21.003Z,2.09
2019-02-28T02:58:26.692Z,2.09
2019-02-28T02:59:20.989Z,2.66
2019-02-28T03:00:20.988Z,3.04
2019-02-28T03:01:23.110Z,1.04
2019-02-28T03:02:20.972Z,0.85
2019-02-28T03:03:20.968Z,1.99
2019-02-28T03:04:23.010Z,1.61
2019-02-28T03:05:20.956Z,1.90
2019-02-28T03:06:20.964Z,3.23
2019-02-28T03:07:24.572Z,1.52
2019-02-28T03:08:20.937Z,1.71
2019-02-28T03:09:20.931Z,2.66
2019-02-28T03:10:20.925Z,4.46
2019-02-28T03:11:24.872Z,4.46
2019-02-28T03:12:20.932Z,2.28
2019-02-28T03:13:20.908Z,1.23
2019-02-28T03:14:20.903Z,0.00
2019-02-28T03:15:26.893Z,0.00
2019-02-28T03:16:20.891Z,0.00
2019-02-28T03:17:20.887Z,0.00
2019-02-28T03:18:21.795Z,0.00
2019-02-28T03:19:20.879Z,0.00
2019-02-28T03:20:20.866Z,0.00
2019-02-28T03:21:20.861Z,0.00
2019-02-28T03:22:28.349Z,0.00
2019-02-28T03:23:20.849Z,0.00
2019-02-28T03:24:20.842Z,0.00
2019-02-28T03:25:27.438Z,0.09
2019-02-28T03:26:20.831Z,0.00
2019-02-28T03:27:20.825Z,0.00
2019-02-28T03:28:20.820Z,0.00
2019-02-28T03:29:20.813Z,0.00
2019-02-28T03:30:28.339Z,0.00
2019-02-28T03:31:20.807Z,0.00
2019-02-28T03:32:20.797Z,0.00
2019-02-28T03:33:27.237Z,0.00
2019-02-28T03:34:20.784Z,0.00
2019-02-28T03:35:20.835Z,0.00
2019-02-28T03:36:20.772Z,0.00
2019-02-28T03:37:20.766Z,0.00
2019-02-28T03:38:20.770Z,0.00
2019-02-28T03:39:24.075Z,0.00
2019-02-28T03:40:20.750Z,0.00
2019-02-28T03:41:20.742Z,0.00
2019-02-28T03:42:20.741Z,0.00
2019-02-28T03:43:20.730Z,0.00
2019-02-28T03:44:21.876Z,0.00
2019-02-28T03:45:20.727Z,0.00
2019-02-28T03:46:20.726Z,0.00
2019-02-28T03:47:23.929Z,0.00
2019-02-28T03:48:20.698Z,0.00
2019-02-28T03:49:20.693Z,0.00
2019-02-28T03:50:21.859Z,0.00
2019-02-28T03:51:20.691Z,0.00
2019-02-28T03:52:20.674Z,0.00
2019-02-28T03:53:21.143Z,0.00
2019-02-28T03:54:20.663Z,0.00
2019-02-28T03:55:20.655Z,0.00
2019-02-28T03:56:20.650Z,0.00
2019-02-28T03:57:27.957Z,0.00
2019-02-28T03:58:20.639Z,0.00
2019-02-28T03:59:20.632Z,0.00
2019-02-28T04:00:20.626Z,0.00
2019-02-28T04:01:20.621Z,0.00
2019-02-28T04:02:22.233Z,0.00
2019-02-28T04:03:20.607Z,0.00
2019-02-28T04:04:20.602Z,0.00
2019-02-28T04:05:26.775Z,0.00
2019-02-28T04:06:20.589Z,0.00
2019-02-28T04:07:20.582Z,0.00
2019-02-28T04:08:20.580Z,0.00
2019-02-28T04:09:20.572Z,0.00
2019-02-28T04:10:22.044Z,0.00
2019-02-28T04:11:20.562Z,0.00
2019-02-28T04:12:20.556Z,0.00
2019-02-28T04:13:20.554Z,0.00
2019-02-28T04:14:20.541Z,0.00
2019-02-28T04:15:20.546Z,0.00
2019-02-28T04:16:20.531Z,0.00
2019-02-28T04:17:20.521Z,0.00
2019-02-28T04:18:20.516Z,0.00
2019-02-28T04:19:22.643Z,0.00
2019-02-28T04:20:20.503Z,0.00
2019-02-28T04:21:20.497Z,0.00
2019-02-28T04:22:23.019Z,0.00
2019-02-28T04:23:20.486Z,0.00
2019-02-28T04:24:20.480Z,0.00
2019-02-28T04:25:24.131Z,0.00
2019-02-28T04:26:20.468Z,0.00
2019-02-28T04:27:20.463Z,0.00
2019-02-28T04:28:20.454Z,0.00
2019-02-28T04:29:20.446Z,0.00
2019-02-28T04:30:20.443Z,0.00
2019-02-28T04:31:20.460Z,0.00
2019-02-28T04:32:26.355Z,0.00
2019-02-28T04:33:20.423Z,0.00
2019-02-28T04:34:20.419Z,0.00
2019-02-28T04:35:23.928Z,0.00
2019-02-28T04:36:20.405Z,0.00
2019-02-28T04:37:20.399Z,0.00
2019-02-28T04:38:21.389Z,0.00
2019-02-28T04:39:22.843Z,0.00
2019-02-28T04:40:20.380Z,0.00
2019-02-28T04:41:20.374Z,0.00
2019-02-28T04:42:20.368Z,0.00
2019-02-28T04:43:20.361Z,0.00
2019-02-28T04:44:20.355Z,0.00
2019-02-28T04:45:20.350Z,0.00
2019-02-28T04:46:20.347Z,0.00
2019-02-28T04:47:20.336Z,0.00
2019-02-28T04:48:20.330Z,0.00
2019-02-28T04:49:22.665Z,0.00
2019-02-28T04:50:20.318Z,0.00
2019-02-28T04:51:20.311Z,0.00
2019-02-28T04:52:20.306Z,0.00
2019-02-28T04:53:20.303Z,0.00
2019-02-28T04:54:20.294Z,0.00
2019-02-28T04:55:20.286Z,0.00
2019-02-28T04:56:20.281Z,0.00
2019-02-28T04:57:20.760Z,0.00
2019-02-28T04:58:22.343Z,0.00
2019-02-28T04:59:20.262Z,0.00
2019-02-28T05:00:20.266Z,0.00
2019-02-28T05:01:20.252Z,0.00
2019-02-28T05:02:20.699Z,0.00
2019-02-28T05:03:20.256Z,0.00
2019-02-28T05:04:20.231Z,0.00
2019-02-28T05:05:20.226Z,0.00
2019-02-28T05:06:21.186Z,0.00
2019-02-28T05:07:20.212Z,0.00
2019-02-28T05:08:20.206Z,0.00
2019-02-28T05:09:20.200Z,0.00
2019-02-28T05:10:22.364Z,0.00
2019-02-28T05:11:20.188Z,0.00
2019-02-28T05:12:20.191Z,0.00
2019-02-28T05:13:20.175Z,0.00
2019-02-28T05:14:23.374Z,0.00
2019-02-28T05:15:20.163Z,0.00
2019-02-28T05:16:20.157Z,0.00
2019-02-28T05:17:22.294Z,0.00
2019-02-28T05:18:20.146Z,0.00
2019-02-28T05:19:20.138Z,0.00
2019-02-28T05:20:20.130Z,0.00
2019-02-28T05:21:20.271Z,0.00
2019-02-28T05:22:20.118Z,0.00
2019-02-28T05:23:20.114Z,0.00
2019-02-28T05:24:20.106Z,0.00
2019-02-28T05:25:20.099Z,0.00
2019-02-28T05:26:20.093Z,0.00
2019-02-28T05:27:20.086Z,0.00
2019-02-28T05:28:20.085Z,0.00
2019-02-28T05:29:20.074Z,0.00
2019-02-28T05:30:20.067Z,0.00
2019-02-28T05:31:20.061Z,0.00
2019-02-28T05:32:20.058Z,0.00
2019-02-28T05:33:20.054Z,0.00
2019-02-28T05:34:20.045Z,0.00
2019-02-28T05:35:25.580Z,0.00
2019-02-28T05:36:20.031Z,0.00
2019-02-28T05:37:20.024Z,0.00
2019-02-28T05:38:21.117Z,0.00
2019-02-28T05:39:20.016Z,0.00
2019-02-28T05:40:20.010Z,0.00
2019-02-28T05:41:20.005Z,0.00
2019-02-28T05:42:20.261Z,0.00
2019-02-28T05:43:19.985Z,0.00
2019-02-28T05:44:21.378Z,0.00
2019-02-28T05:45:19.974Z,0.00
2019-02-28T05:46:20.354Z,0.00
2019-02-28T05:47:19.960Z,0.00
2019-02-28T05:48:19.954Z,0.00
2019-02-28T05:49:19.947Z,0.00
2019-02-28T05:50:19.941Z,0.00
2019-02-28T05:51:19.934Z,0.00
2019-02-28T05:52:19.931Z,0.00
2019-02-28T05:53:19.926Z,0.00
2019-02-28T05:54:19.916Z,0.00
2019-02-28T05:55:24.247Z,0.00
2019-02-28T05:56:19.902Z,0.00
2019-02-28T05:57:20.146Z,0.00
2019-02-28T07:13:20.677Z,0.00
2019-02-28T07:14:20.672Z,0.00
2019-02-28T07:15:24.090Z,0.00
2019-02-28T07:16:20.658Z,0.00
2019-02-28T07:17:20.652Z,0.00
2019-02-28T07:18:20.646Z,0.00
2019-02-28T07:19:20.648Z,0.00
2019-02-28T07:20:20.634Z,0.00
2019-02-28T07:21:20.630Z,0.00
2019-02-28T07:22:20.730Z,0.00
2019-02-28T07:23:22.197Z,0.00
2019-02-28T07:24:20.608Z,0.00
2019-02-28T07:25:20.600Z,0.00
2019-02-28T07:26:20.598Z,0.00
2019-02-28T07:27:23.358Z,0.00
2019-02-28T07:28:20.582Z,0.00
2019-02-28T07:29:20.576Z,0.00
2019-02-28T07:30:20.569Z,0.00
2019-02-28T07:31:21.626Z,0.00
2019-02-28T07:32:20.556Z,0.00
2019-02-28T07:33:20.550Z,0.00
2019-02-28T07:34:23.784Z,0.00
2019-02-28T07:35:20.538Z,0.00
2019-02-28T07:36:20.532Z,0.00
2019-02-28T07:37:20.525Z,0.00
2019-02-28T07:38:20.521Z,0.00
2019-02-28T07:39:20.514Z,0.00
2019-02-28T07:40:20.507Z,0.00
2019-02-28T07:41:26.124Z,0.00
2019-02-28T07:42:20.497Z,0.00
2019-02-28T07:43:20.491Z,0.00
2019-02-28T07:44:22.237Z,0.00
2019-02-28T07:45:20.475Z,0.00
2019-02-28T07:46:20.472Z,0.00
2019-02-28T07:47:20.464Z,0.00
2019-02-28T07:48:20.460Z,0.00
2019-02-28T07:49:20.450Z,0.00
2019-02-28T07:50:20.444Z,0.00
2019-02-28T07:51:22.324Z,0.00
2019-02-28T07:52:20.511Z,0.00
2019-02-28T07:53:20.426Z,0.00
2019-02-28T07:54:20.594Z,0.00
2019-02-28T07:55:20.415Z,0.00
2019-02-28T07:56:20.408Z,0.00
2019-02-28T07:57:22.360Z,0.00
2019-02-28T07:58:20.398Z,0.00
2019-02-28T07:59:20.403Z,0.00
2019-02-28T08:00:20.390Z,0.00
2019-02-28T08:01:20.378Z,0.00
2019-02-28T08:02:20.373Z,0.00
2019-02-28T08:03:20.369Z,0.00
2019-02-28T08:04:20.360Z,0.00
2019-02-28T08:05:20.359Z,0.00
2019-02-28T08:06:20.349Z,0.00
2019-02-28T08:07:20.351Z,0.00
2019-02-28T08:08:23.495Z,0.00
2019-02-28T08:09:20.332Z,0.00
2019-02-28T08:10:20.326Z,0.00
2019-02-28T08:11:20.823Z,0.00
2019-02-28T08:12:20.318Z,0.00
2019-02-28T08:13:20.309Z,0.00
2019-02-28T08:14:20.304Z,0.00
2019-02-28T08:15:22.237Z,0.00
2019-02-28T08:16:20.294Z,0.00
2019-02-28T08:17:20.286Z,0.00
2019-02-28T08:18:20.284Z,0.00
2019-02-28T08:19:20.285Z,0.00
2019-02-28T08:20:20.269Z,0.00
2019-02-28T08:21:20.265Z,0.00
2019-02-28T08:22:24.357Z,0.00
2019-02-28T08:23:20.254Z,0.00
2019-02-28T08:24:20.249Z,0.00
2019-02-28T08:25:20.251Z,0.00
2019-02-28T08:26:20.239Z,0.00
2019-02-28T08:27:20.232Z,0.00
2019-02-28T08:28:20.225Z,0.00
2019-02-28T08:29:20.230Z,0.00
2019-02-28T08:30:20.656Z,0.00
2019-02-28T08:31:20.209Z,0.00
2019-02-28T08:32:20.203Z,0.00
2019-02-28T08:33:20.198Z,0.00
2019-02-28T08:34:20.715Z,0.00
2019-02-28T08:35:20.188Z,0.00
2019-02-28T08:36:20.182Z,0.00
2019-02-28T08:37:21.881Z,0.00
2019-02-28T08:38:20.172Z,0.00
2019-02-28T08:39:20.167Z,0.00
2019-02-28T08:40:20.163Z,0.00
2019-02-28T08:41:22.590Z,0.00
2019-02-28T08:42:20.152Z,0.00
2019-02-28T08:43:26.815Z,0.00
2019-02-28T08:44:23.806Z,0.00
2019-02-28T08:45:20.138Z,0.00
2019-02-28T08:46:20.133Z,0.00
2019-02-28T08:47:21.151Z,0.00
2019-02-28T08:48:20.124Z,0.00
2019-02-28T08:49:20.119Z,0.00
2019-02-28T08:50:22.670Z,0.00
2019-02-28T08:51:20.114Z,0.00
2019-02-28T08:52:20.103Z,0.00
2019-02-28T08:53:20.099Z,0.00
2019-02-28T08:54:26.121Z,0.00
2019-02-28T08:55:28.262Z,0.00
2019-02-28T08:56:20.085Z,0.00
2019-02-28T08:57:22.044Z,0.47
2019-02-28T08:58:20.074Z,4.75
2019-02-28T08:59:22.516Z,3.61
2019-02-28T09:00:20.067Z,2.57
2019-02-28T09:01:20.061Z,2.76
2019-02-28T09:02:20.058Z,3.80
2019-02-28T09:03:20.053Z,5.23
2019-02-28T09:04:20.047Z,3.61
2019-02-28T09:05:25.675Z,2.47
2019-02-28T09:06:20.039Z,0.09
2019-02-28T09:07:20.035Z,5.24
2019-02-28T09:08:22.410Z,7.81
2019-02-28T09:09:20.025Z,10.28
2019-02-28T09:10:20.022Z,11.52
2019-02-28T09:11:21.117Z,11.71
2019-02-28T09:12:20.013Z,11.04
2019-02-28T09:13:20.010Z,10.57
2019-02-28T09:14:20.005Z,9.05
2019-02-28T09:15:20.000Z,8.18
2019-02-28T09:16:19.996Z,9.90
2019-02-28T09:17:19.993Z,13.62
2019-02-28T09:18:19.988Z,13.42
2019-02-28T09:19:19.986Z,10.66
2019-02-28T09:20:19.980Z,10.66
2019-02-28T09:21:19.978Z,10.95
2019-02-28T09:22:19.973Z,10.66
2019-02-28T09:23:19.968Z,10.28
2019-02-28T09:24:19.963Z,11.61
2019-02-28T09:25:22.100Z,10.57
2019-02-28T09:26:19.956Z,11.23
2019-02-28T09:27:19.953Z,10.57
2019-02-28T09:28:20.900Z,10.66
2019-02-28T09:29:21.294Z,11.90
2019-02-28T09:30:19.960Z,13.42
2019-02-28T09:31:19.937Z,15.72
2019-02-28T09:32:19.932Z,17.72
2019-02-28T09:33:23.228Z,18.10
2019-02-28T09:34:19.931Z,18.48
2019-02-28T09:35:19.926Z,16.48
2019-02-28T09:36:20.832Z,20.96
2019-02-28T09:37:19.915Z,19.91
2019-02-28T09:38:19.912Z,21.05
2019-02-28T09:39:20.298Z,20.01
2019-02-28T09:40:19.905Z,25.64
2019-02-28T09:41:19.902Z,26.68
2019-02-28T09:42:19.898Z,28.78
2019-02-28T09:43:19.896Z,27.26
2019-02-28T09:44:19.893Z,26.97
2019-02-28T09:45:19.888Z,27.27
2019-02-28T09:46:19.886Z,34.14
2019-02-28T09:47:19.885Z,37.30
2019-02-28T09:48:19.880Z,41.05
2019-02-28T09:49:19.878Z,46.20
2019-02-28T09:50:22.458Z,50.33
2019-02-28T09:51:19.874Z,51.48
2019-02-28T09:52:19.871Z,51.48
2019-02-28T09:53:19.870Z,51.76
2019-02-28T09:54:21.356Z,50.21
2019-02-28T09:55:19.866Z,50.88
2019-02-28T09:56:19.865Z,49.16
2019-02-28T09:57:19.905Z,47.82
2019-02-28T09:58:19.862Z,49.83
2019-02-28T09:59:19.866Z,48.02
2019-02-28T10:00:19.862Z,52.34
2019-02-28T10:01:21.263Z,55.01
2019-02-28T10:02:19.861Z,54.25
2019-02-28T10:03:19.872Z,56.57
2019-02-28T10:04:19.858Z,60.58
2019-02-28T10:05:19.860Z,58.48
2019-02-28T10:06:19.860Z,58.58
2019-02-28T10:07:19.860Z,60.96
2019-02-28T10:08:21.663Z,62.59
2019-02-28T10:09:19.860Z,62.87
2019-02-28T10:10:21.022Z,62.90
2019-02-28T10:11:21.719Z,69.98
2019-02-28T10:12:19.864Z,71.83
2019-02-28T10:13:19.861Z,70.01
2019-02-28T10:14:19.865Z,68.93
2019-02-28T10:15:19.877Z,64.91
2019-02-28T10:16:19.867Z,65.01
2019-02-28T10:17:19.868Z,67.69
2019-02-28T10:18:19.868Z,71.03
2019-02-28T10:19:19.871Z,67.97
2019-02-28T10:20:19.871Z,65.77
2019-02-28T10:21:19.873Z,66.06
2019-02-28T10:22:19.875Z,70.11
2019-02-28T10:23:21.465Z,71.26
2019-02-28T10:24:19.879Z,70.84
2019-02-28T10:25:19.882Z,69.64
2019-02-28T10:26:19.884Z,73.84
2019-02-28T10:27:19.891Z,71.93
2019-02-28T10:28:19.888Z,70.46
2019-02-28T10:29:19.892Z,72.88
2019-02-28T10:30:30.708Z,71.51
2019-02-28T10:31:22.878Z,71.64
2019-02-28T10:32:19.899Z,72.69
2019-02-28T10:33:19.904Z,71.70
2019-02-28T10:34:19.907Z,73.08
2019-02-28T10:35:19.910Z,71.22
2019-02-28T10:36:19.910Z,66.99
2019-02-28T10:37:22.846Z,64.78
2019-02-28T10:38:19.917Z,65.55
2019-02-28T10:39:19.918Z,68.16
2019-02-28T10:40:19.921Z,68.93
2019-02-28T10:41:19.924Z,67.49
2019-02-28T10:42:19.927Z,67.69
2019-02-28T10:43:19.934Z,69.02
2019-02-28T10:44:19.932Z,63.93
2019-02-28T10:45:19.935Z,62.18
2019-02-28T10:46:20.285Z,58.90
2019-02-28T10:47:19.940Z,54.50
2019-02-28T10:48:19.940Z,52.40
2019-02-28T10:49:21.080Z,53.86
2019-02-28T10:50:19.946Z,58.83
2019-02-28T10:51:19.948Z,57.90
2019-02-28T10:52:19.952Z,60.77
2019-02-28T10:53:19.951Z,61.03
2019-02-28T10:54:19.954Z,62.97
2019-02-28T10:55:22.566Z,62.21
2019-02-28T10:56:19.956Z,64.22
2019-02-28T10:57:19.958Z,63.45
2019-02-28T10:58:19.960Z,63.73
2019-02-28T10:59:21.354Z,64.31
2019-02-28T11:00:20.181Z,65.17
2019-02-28T11:01:19.967Z,65.07
2019-02-28T11:02:20.031Z,62.78
2019-02-28T11:03:19.966Z,63.45
2019-02-28T11:04:19.967Z,63.03
2019-02-28T11:05:19.968Z,64.12
2019-02-28T11:06:19.973Z,65.45
2019-02-28T11:07:19.971Z,68.07
2019-02-28T11:08:19.972Z,68.93
2019-02-28T11:09:21.412Z,71.99
2019-02-28T11:10:19.973Z,69.76
2019-02-28T11:11:19.975Z,68.13
2019-02-28T11:12:21.739Z,65.93
2019-02-28T11:13:19.979Z,66.13
2019-02-28T11:14:19.977Z,66.41
2019-02-28T11:15:19.977Z,63.60
2019-02-28T11:16:20.438Z,60.36
2019-02-28T11:17:19.979Z,61.32
2019-02-28T11:18:19.982Z,60.52
2019-02-28T11:19:19.980Z,60.04
2019-02-28T11:20:22.288Z,61.51
2019-02-28T11:21:19.981Z,62.78
2019-02-28T11:22:19.981Z,66.31
2019-02-28T11:23:19.984Z,66.19
2019-02-28T11:24:20.613Z,64.18
2019-02-28T11:25:19.983Z,65.55
2019-02-28T11:26:19.984Z,67.36
2019-02-28T11:27:22.840Z,67.36
2019-02-28T11:28:19.983Z,67.55
2019-02-28T11:29:19.989Z,65.33
2019-02-28T11:30:19.987Z,63.80
2019-02-28T11:31:20.082Z,63.99
2019-02-28T11:32:19.986Z,64.31
2019-02-28T11:33:19.987Z,63.99
2019-02-28T11:34:19.987Z,64.09
2019-02-28T11:35:20.090Z,63.42
2019-02-28T11:36:19.987Z,63.83
2019-02-28T11:37:19.988Z,63.89
2019-02-28T11:38:21.551Z,63.42
2019-02-28T11:39:19.988Z,62.18
2019-02-28T11:40:19.986Z,58.99
2019-02-28T11:41:19.986Z,55.75
2019-02-28T11:42:19.988Z,55.46
2019-02-28T11:43:19.988Z,57.11
2019-02-28T11:44:19.985Z,57.18
2019-02-28T11:45:22.021Z,57.46
2019-02-28T11:46:19.985Z,57.18
2019-02-28T11:47:19.984Z,58.45
2019-02-28T11:48:20.500Z,58.07
2019-02-28T11:49:19.983Z,56.32
2019-02-28T11:50:19.982Z,56.23
2019-02-28T11:51:19.983Z,55.84
2019-02-28T11:52:19.980Z,55.75
2019-02-28T11:53:19.980Z,55.94
2019-02-28T11:54:19.980Z,55.94
2019-02-28T11:55:20.402Z,57.56
2019-02-28T11:56:20.011Z,56.32
2019-02-28T11:57:20.625Z,55.18
2019-02-28T11:58:19.976Z,56.32
2019-02-28T11:59:19.986Z,54.79
2019-02-28T12:00:19.974Z,54.99
2019-02-28T12:01:19.972Z,56.13
2019-02-28T12:02:20.582Z,57.94
2019-02-28T12:03:19.979Z,58.04
2019-02-28T12:04:19.967Z,57.31
2019-02-28T12:05:19.968Z,58.16
2019-02-28T12:06:22.366Z,59.09
2019-02-28T12:07:19.965Z,58.45
2019-02-28T12:08:19.965Z,57.02
2019-02-28T12:09:20.090Z,57.87
2019-02-28T12:10:19.961Z,55.11
2019-02-28T12:11:19.960Z,57.02
2019-02-28T12:12:19.958Z,59.78
2019-02-28T12:13:20.574Z,61.03
2019-02-28T12:14:19.955Z,57.87
2019-02-28T12:15:19.954Z,59.19
2019-02-28T12:16:20.266Z,58.04
2019-02-28T12:17:19.952Z,54.89
2019-02-28T12:18:19.953Z,54.41
2019-02-28T12:19:19.948Z,55.18
2019-02-28T12:20:25.925Z,55.75
2019-02-28T12:21:19.946Z,55.55
2019-02-28T12:22:19.945Z,58.90
2019-02-28T12:23:22.916Z,57.02
2019-02-28T12:24:19.940Z,58.73
2019-02-28T12:25:19.941Z,62.27
2019-02-28T12:26:21.078Z,62.08
2019-02-28T12:27:19.936Z,61.60
2019-02-28T12:28:19.935Z,60.64
2019-02-28T12:29:19.934Z,60.55
2019-02-28T12:30:21.950Z,62.18
2019-02-28T12:31:19.932Z,61.51
2019-02-28T12:32:19.933Z,61.41
2019-02-28T12:33:23.140Z,62.84
2019-02-28T12:34:19.927Z,63.89
2019-02-28T12:35:19.926Z,64.94
2019-02-28T12:36:19.924Z,63.32
2019-02-28T12:37:22.093Z,63.13
2019-02-28T12:38:19.921Z,63.42
2019-02-28T12:39:19.920Z,64.18
2019-02-28T12:40:19.916Z,63.89
2019-02-28T12:41:21.731Z,64.31
2019-02-28T12:42:19.914Z,64.98
2019-02-28T12:43:19.914Z,64.56
2019-02-28T12:44:19.911Z,63.99
2019-02-28T12:45:21.263Z,64.47
2019-02-28T12:46:19.910Z,63.83
2019-02-28T12:47:19.909Z,65.07
2019-02-28T12:48:19.905Z,66.03
2019-02-28T12:49:22.398Z,67.18
2019-02-28T12:50:19.904Z,66.13
2019-02-28T12:51:19.902Z,66.13
2019-02-28T12:52:19.900Z,64.88
2019-02-28T12:53:24.118Z,69.41
2019-02-28T12:54:19.901Z,69.79
2019-02-28T12:55:19.898Z,70.36
2019-02-28T12:56:19.896Z,68.70
2019-02-28T12:57:22.329Z,69.66
2019-02-28T12:58:19.893Z,70.42
2019-02-28T12:59:19.891Z,70.14
2019-02-28T13:00:23.118Z,68.90
2019-02-28T13:01:19.889Z,67.94
2019-02-28T13:02:19.888Z,67.55
2019-02-28T13:03:21.095Z,66.89
2019-02-28T13:04:19.884Z,68.23
2019-02-28T13:05:19.883Z,68.90
2019-02-28T13:06:23.442Z,67.46
2019-02-28T13:07:19.880Z,67.46
2019-02-28T13:08:19.878Z,67.49
2019-02-28T13:09:19.877Z,71.99
2019-02-28T13:10:19.875Z,71.22
2019-02-28T13:11:19.878Z,72.08
2019-02-28T13:12:19.874Z,71.89
2019-02-28T13:13:21.584Z,72.37
2019-02-28T13:14:19.874Z,74.19
2019-02-28T13:15:19.871Z,74.19
2019-02-28T13:16:20.769Z,72.94
2019-02-28T13:17:19.867Z,71.67
2019-02-28T13:18:19.864Z,72.24
2019-02-28T13:19:20.134Z,71.51
2019-02-28T13:20:19.862Z,69.89
2019-02-28T13:21:19.860Z,72.85
2019-02-28T13:22:23.323Z,72.08
2019-02-28T13:23:19.857Z,73.33
2019-02-28T13:24:19.862Z,73.23
2019-02-28T13:25:23.599Z,73.52
2019-02-28T13:26:19.855Z,73.71
2019-02-28T13:27:19.852Z,73.23
2019-02-28T13:28:22.100Z,73.04
2019-02-28T13:29:22.029Z,72.56
2019-02-28T13:30:19.846Z,72.37
2019-02-28T13:31:19.847Z,73.14
2019-02-28T13:32:19.843Z,72.94
2019-02-28T13:33:19.850Z,74.04
2019-02-28T13:34:19.847Z,75.66
2019-02-28T13:35:19.919Z,74.48
2019-02-28T13:36:21.631Z,74.19
2019-02-28T13:37:19.835Z,74.66
2019-02-28T13:38:20.023Z,74.19
2019-02-28T13:39:19.833Z,73.14
2019-02-28T13:40:21.977Z,73.94
2019-02-28T13:41:22.106Z,75.09
2019-02-28T13:42:19.830Z,74.80
2019-02-28T13:43:22.408Z,76.23
2019-02-28T13:44:19.824Z,75.56
2019-02-28T13:45:23.126Z,75.76
2019-02-28T13:46:19.824Z,75.66
2019-02-28T13:47:19.822Z,77.19
2019-02-28T13:48:25.957Z,75.95
2019-02-28T13:49:19.817Z,75.85
2019-02-28T13:50:22.029Z,77.38
2019-02-28T13:51:19.816Z,76.81
2019-02-28T13:52:20.847Z,77.00
2019-02-28T13:53:19.810Z,77.67
2019-02-28T13:54:19.810Z,77.38
2019-02-28T13:55:20.167Z,76.90
2019-02-28T13:56:19.808Z,78.53
2019-02-28T13:57:19.806Z,79.00
2019-02-28T13:58:21.611Z,78.63
2019-02-28T13:59:19.805Z,78.91
2019-02-28T14:00:19.801Z,79.05
2019-02-28T14:01:20.355Z,80.19
2019-02-28T14:02:19.800Z,79.91
2019-02-28T14:03:19.798Z,80.73
2019-02-28T14:04:25.991Z,79.49
2019-02-28T14:05:19.793Z,79.05
2019-02-28T14:06:20.014Z,80.06
2019-02-28T14:07:19.798Z,79.96
2019-02-28T14:08:19.789Z,78.53
2019-02-28T14:09:22.164Z,78.53
2019-02-28T14:10:19.789Z,77.67
2019-02-28T14:11:19.801Z,77.76
2019-02-28T14:12:20.796Z,78.91
2019-02-28T14:13:19.783Z,78.53
2019-02-28T14:14:19.781Z,76.81
2019-02-28T14:15:19.780Z,79.39
2019-02-28T14:16:19.779Z,79.00
2019-02-28T14:17:19.779Z,78.43
2019-02-28T14:18:19.776Z,78.72
2019-02-28T14:19:20.472Z,78.43